createdAt,value
2023-01-29T00:02:19.981Z,100.00
2023-01-29T00:04:47.879Z,100.00
2023-01-29T00:07:15.620Z,100.00
2023-01-29T00:09:43.050Z,100.00
2023-01-29T00:12:10.802Z,100.00
2023-01-29T00:14:38.682Z,100.00
2023-01-29T00:17:06.491Z,100.00
2023-01-29T00:19:33.973Z,100.00
2023-01-29T00:22:01.464Z,100.00
2023-01-29T00:24:28.992Z,100.00
2023-01-29T00:26:56.641Z,100.00
2023-01-29T00:29:24.272Z,100.00
2023-01-29T00:31:51.730Z,100.00
2023-01-29T00:34:19.292Z,100.00
2023-01-29T00:36:46.722Z,100.00
2023-01-29T00:39:14.461Z,100.00
2023-01-29T00:42:00.321Z,100.00
2023-01-29T00:44:46.543Z,100.00
2023-01-29T00:47:33.936Z,100.00
2023-01-29T00:50:04.144Z,100.00
2023-01-29T00:52:31.757Z,100.00
2023-01-29T00:55:00.903Z,100.00
2023-01-29T00:57:30.555Z,100.00
2023-01-29T00:59:58.065Z,100.00
2023-01-29T01:02:44.085Z,100.00
2023-01-29T01:05:18.396Z,100.00
2023-01-29T01:07:56.564Z,100.00
2023-01-29T01:10:27.796Z,100.00
2023-01-29T01:12:56.533Z,100.00
2023-01-29T01:15:29.541Z,100.00
2023-01-29T01:18:00.365Z,100.00
2023-01-29T01:20:30.108Z,100.00
2023-01-29T01:22:57.955Z,100.00
2023-01-29T01:25:27.086Z,100.00
2023-01-29T01:27:57.091Z,100.00
2023-01-29T01:30:25.761Z,100.00
2023-01-29T01:32:53.404Z,100.00
2023-01-29T01:35:21.070Z,100.00
2023-01-29T01:37:49.334Z,100.00
2023-01-29T01:40:19.322Z,100.00
2023-01-29T01:42:59.131Z,100.00
2023-01-29T01:45:34.884Z,100.00
2023-01-29T01:48:22.153Z,100.00
2023-01-29T01:51:04.495Z,100.00
2023-01-29T01:53:38.972Z,100.00
2023-01-29T01:59:03.080Z,100.00
2023-01-29T02:01:30.767Z,100.00
2023-01-29T02:04:34.346Z,100.00
2023-01-29T02:07:23.604Z,100.00
2023-01-29T02:10:00.847Z,100.00
2023-01-29T02:12:31.344Z,100.00
2023-01-29T02:14:59.842Z,100.00
2023-01-29T02:17:27.341Z,100.00
2023-01-29T02:20:17.053Z,100.00
2023-01-29T02:23:23.555Z,100.00
2023-01-29T02:26:19.273Z,100.00
2023-01-29T02:29:25.679Z,100.00
2023-01-29T02:32:27.449Z,100.00
2023-01-29T02:35:30.894Z,100.00
2023-01-29T02:38:04.341Z,100.00
2023-01-29T02:40:38.944Z,100.00
2023-01-29T02:43:27.741Z,100.00
2023-01-29T02:46:20.649Z,100.00
2023-01-29T02:48:58.320Z,100.00
2023-01-29T02:51:34.636Z,100.00
2023-01-29T02:54:14.159Z,100.00
2023-01-29T02:56:51.819Z,100.00
2023-01-29T02:59:25.776Z,100.00
2023-01-29T03:02:01.494Z,100.00
2023-01-29T03:04:34.086Z,100.00
2023-01-29T03:07:10.764Z,100.00
2023-01-29T03:09:45.308Z,100.00
2023-01-29T03:12:37.100Z,100.00
2023-01-29T03:15:25.515Z,100.00
2023-01-29T03:18:19.190Z,100.00
2023-01-29T03:20:52.154Z,99.65
2023-01-29T03:23:47.685Z,99.43
2023-01-29T03:26:37.363Z,98.88
2023-01-29T03:29:25.065Z,98.34
2023-01-29T03:32:04.663Z,98.47
2023-01-29T03:34:42.163Z,97.87
2023-01-29T03:37:30.097Z,97.64
2023-01-29T03:39:57.579Z,97.90
2023-01-29T03:42:43.833Z,98.14
2023-01-29T03:45:16.457Z,98.08
2023-01-29T03:48:20.315Z,97.96
2023-01-29T03:50:54.699Z,97.34
2023-01-29T03:53:44.216Z,97.32
2023-01-29T03:56:34.712Z,97.70
2023-01-29T03:59:28.950Z,98.70
2023-01-29T04:02:13.227Z,98.72
2023-01-29T04:04:44.158Z,99.13
2023-01-29T04:07:24.625Z,100.00
2023-01-29T04:10:16.687Z,100.00
2023-01-29T04:12:52.787Z,100.00
2023-01-29T04:15:22.872Z,100.00
2023-01-29T04:17:53.017Z,100.00
2023-01-29T04:20:27.437Z,100.00
2023-01-29T04:22:55.860Z,100.00
2023-01-29T04:25:29.122Z,100.00
2023-01-29T04:28:16.548Z,100.00
2023-01-29T04:30:54.215Z,100.00
2023-01-29T04:33:58.200Z,100.00
2023-01-29T04:36:48.867Z,100.00
2023-01-29T04:39:26.511Z,100.00
2023-01-29T04:42:03.104Z,100.00
2023-01-29T04:44:41.914Z,100.00
2023-01-29T04:47:27.790Z,100.00
2023-01-29T04:50:18.613Z,100.00
2023-01-29T04:53:20.575Z,100.00
2023-01-29T04:56:02.249Z,100.00
2023-01-29T04:58:39.505Z,100.00
2023-01-29T05:01:09.371Z,100.00
2023-01-29T05:03:39.539Z,100.00
2023-01-29T05:06:08.302Z,100.00
2023-01-29T05:08:39.503Z,100.00
2023-01-29T05:11:27.777Z,100.00
2023-01-29T05:13:56.590Z,100.00
2023-01-29T05:16:42.297Z,100.00
2023-01-29T05:19:12.434Z,100.00
2023-01-29T05:21:42.400Z,100.00
2023-01-29T05:24:22.142Z,100.00
2023-01-29T05:27:10.473Z,100.00
2023-01-29T05:29:39.364Z,100.00
2023-01-29T05:32:06.888Z,100.00
2023-01-29T05:34:34.629Z,100.00
2023-01-29T05:37:02.035Z,100.00
2023-01-29T05:39:29.424Z,100.00
2023-01-29T05:41:56.886Z,100.00
2023-01-29T05:44:24.328Z,100.00
2023-01-29T05:46:52.330Z,100.00
2023-01-29T05:49:20.827Z,100.00
2023-01-29T05:51:48.255Z,100.00
2023-01-29T05:54:15.838Z,100.00
2023-01-29T05:56:43.266Z,100.00
2023-01-29T05:59:10.777Z,100.00
2023-01-29T06:01:38.434Z,100.00
2023-01-29T06:04:06.067Z,100.00
2023-01-29T06:06:33.471Z,100.00
2023-01-29T06:09:00.870Z,100.00
2023-01-29T06:11:28.447Z,100.00
2023-01-29T06:13:55.904Z,100.00
2023-01-29T06:16:23.403Z,100.00
2023-01-29T06:18:50.933Z,100.00
2023-01-29T06:21:20.150Z,100.00
2023-01-29T06:23:53.955Z,100.00
2023-01-29T06:26:21.446Z,100.00
2023-01-29T06:28:50.731Z,100.00
2023-01-29T06:31:38.303Z,100.00
2023-01-29T06:34:12.772Z,100.00
2023-01-29T06:36:41.921Z,100.00
2023-01-29T06:39:09.372Z,100.00
2023-01-29T06:41:36.834Z,100.00
2023-01-29T06:44:04.625Z,100.00
2023-01-29T06:46:32.615Z,100.00
2023-01-29T06:49:02.688Z,100.00
2023-01-29T06:51:30.291Z,100.00
2023-01-29T06:53:58.183Z,100.00
2023-01-29T06:56:25.746Z,100.00
2023-01-29T06:58:52.903Z,100.00
2023-01-29T07:01:34.638Z,100.00
2023-01-29T07:04:03.462Z,100.00
2023-01-29T07:06:30.864Z,100.00
2023-01-29T07:08:58.326Z,100.00
2023-01-29T07:11:25.921Z,100.00
2023-01-29T07:13:53.617Z,100.00
2023-01-29T07:16:21.094Z,100.00
2023-01-29T07:18:48.527Z,100.00
2023-01-29T07:21:15.909Z,100.00
2023-01-29T07:23:43.161Z,100.00
2023-01-29T07:26:11.512Z,100.00
2023-01-29T07:28:39.894Z,100.00
2023-01-29T07:31:08.664Z,100.00
2023-01-29T07:33:36.002Z,100.00
2023-01-29T07:36:08.280Z,100.00
2023-01-29T07:38:35.849Z,100.00
2023-01-29T07:41:03.459Z,100.00
2023-01-29T07:43:31.074Z,100.00
2023-01-29T07:46:02.805Z,100.00
2023-01-29T07:48:30.831Z,100.00
2023-01-29T07:50:59.195Z,100.00
2023-01-29T07:53:28.410Z,99.53
2023-01-29T07:55:56.204Z,100.00
2023-01-29T07:58:23.672Z,99.45
2023-01-29T08:00:50.991Z,98.74
2023-01-29T08:03:22.560Z,98.88
2023-01-29T08:05:50.314Z,99.04
2023-01-29T08:08:17.824Z,98.59
2023-01-29T08:10:45.297Z,98.21
2023-01-29T08:13:12.786Z,97.72
2023-01-29T08:15:43.228Z,98.04
2023-01-29T08:18:10.878Z,97.78
2023-01-29T08:20:38.505Z,96.18
2023-01-29T08:23:09.135Z,95.08
2023-01-29T08:25:36.871Z,95.17
2023-01-29T08:28:04.687Z,95.29
2023-01-29T08:30:34.218Z,95.64
2023-01-29T08:33:03.140Z,95.47
2023-01-29T08:35:31.866Z,94.93
2023-01-29T08:38:01.363Z,95.51
2023-01-29T08:40:43.805Z,90.69
2023-01-29T08:43:12.547Z,90.99
2023-01-29T08:45:44.755Z,89.46
2023-01-29T08:48:12.861Z,90.86
2023-01-29T08:50:40.446Z,89.28
2023-01-29T08:53:09.988Z,90.81
2023-01-29T08:55:46.168Z,89.75
2023-01-29T09:01:45.285Z,90.60
2023-01-29T09:04:16.645Z,90.02
2023-01-29T09:06:44.292Z,91.03
2023-01-29T09:09:30.885Z,89.83
2023-01-29T09:12:01.749Z,86.94
2023-01-29T09:14:29.398Z,88.30
2023-01-29T09:16:58.864Z,85.35
2023-01-29T09:19:26.056Z,86.19
2023-01-29T09:21:53.205Z,86.97
2023-01-29T09:24:20.469Z,87.98
2023-01-29T09:26:47.600Z,88.78
2023-01-29T09:29:15.188Z,86.46
2023-01-29T09:31:42.485Z,87.74
2023-01-29T09:34:09.822Z,87.01
2023-01-29T09:36:37.219Z,89.58
2023-01-29T09:39:04.798Z,88.62
2023-01-29T09:41:41.506Z,85.63
2023-01-29T09:44:38.535Z,87.77
2023-01-29T09:47:13.462Z,84.80
2023-01-29T09:49:46.363Z,84.22
2023-01-29T09:52:19.463Z,85.49
2023-01-29T09:55:24.926Z,86.10
2023-01-29T09:57:57.817Z,86.34
2023-01-29T10:00:33.321Z,84.99
2023-01-29T10:03:28.455Z,84.59
2023-01-29T10:06:32.711Z,83.37
2023-01-29T10:09:27.713Z,82.57
2023-01-29T10:12:12.959Z,83.35
2023-01-29T10:15:06.189Z,84.44
2023-01-29T10:18:10.994Z,85.01
2023-01-29T10:21:16.776Z,83.10
2023-01-29T10:23:50.688Z,81.82
2023-01-29T10:26:21.286Z,82.00
2023-01-29T10:28:51.189Z,81.99
2023-01-29T10:31:36.662Z,80.31
2023-01-29T10:34:11.704Z,79.94
2023-01-29T10:36:49.147Z,80.80
2023-01-29T10:39:21.940Z,81.22
2023-01-29T10:41:49.675Z,78.60
2023-01-29T10:44:27.043Z,79.88
2023-01-29T10:47:16.321Z,82.14
2023-01-29T10:50:13.055Z,81.63
2023-01-29T10:53:09.737Z,81.25
2023-01-29T10:56:01.282Z,81.15
2023-01-29T10:58:44.969Z,82.24
2023-01-29T11:01:13.610Z,82.05
2023-01-29T11:03:40.857Z,82.93
2023-01-29T11:06:08.300Z,83.62
2023-01-29T11:08:59.092Z,81.34
2023-01-29T11:11:38.321Z,81.82
2023-01-29T11:14:10.733Z,80.55
2023-01-29T11:16:54.107Z,80.65
2023-01-29T11:19:40.406Z,81.12
2023-01-29T11:22:13.724Z,80.90
2023-01-29T11:24:40.867Z,81.35
2023-01-29T11:27:35.993Z,79.70
2023-01-29T11:30:04.274Z,79.47
2023-01-29T11:32:35.019Z,80.04
2023-01-29T11:35:10.237Z,81.07
2023-01-29T11:37:44.424Z,81.86
2023-01-29T11:40:22.412Z,79.43
2023-01-29T11:42:53.357Z,79.56
2023-01-29T11:45:20.732Z,81.87
2023-01-29T11:47:55.155Z,82.50
2023-01-29T11:50:34.137Z,81.05
2023-01-29T11:53:02.493Z,80.76
2023-01-29T11:55:49.458Z,80.74
2023-01-29T11:58:26.131Z,78.10
2023-01-29T12:01:08.476Z,77.63
2023-01-29T12:03:47.856Z,76.92
2023-01-29T12:06:35.401Z,77.97
2023-01-29T12:09:17.015Z,77.88
2023-01-29T12:11:44.462Z,78.58
2023-01-29T12:14:41.225Z,78.33
2023-01-29T12:17:24.141Z,77.65
2023-01-29T12:20:01.266Z,77.08
2023-01-29T12:22:41.018Z,77.32
2023-01-29T12:25:24.836Z,77.53
2023-01-29T12:28:13.711Z,76.89
2023-01-29T12:30:52.113Z,76.71
2023-01-29T12:33:50.243Z,78.16
2023-01-29T12:36:59.082Z,77.80
2023-01-29T12:39:26.961Z,79.18
2023-01-29T12:41:58.488Z,79.42
2023-01-29T12:44:43.197Z,79.16
2023-01-29T12:47:18.184Z,79.80
2023-01-29T12:50:24.442Z,79.55
2023-01-29T12:52:57.427Z,79.22
2023-01-29T12:55:38.476Z,78.59
2023-01-29T13:01:41.118Z,78.32
2023-01-29T13:04:40.501Z,78.56
2023-01-29T13:07:19.081Z,78.32
2023-01-29T13:09:51.606Z,77.12
2023-01-29T13:12:22.896Z,78.01
2023-01-29T13:15:04.085Z,76.54
2023-01-29T13:17:40.469Z,75.82
2023-01-29T13:20:24.375Z,73.82
2023-01-29T13:22:54.878Z,73.97
2023-01-29T13:25:22.781Z,74.18
2023-01-29T13:27:50.739Z,74.48
2023-01-29T13:30:33.432Z,73.49
2023-01-29T13:33:11.340Z,74.73
2023-01-29T13:35:45.244Z,75.44
2023-01-29T13:38:47.813Z,75.96
2023-01-29T13:41:15.370Z,76.10
2023-01-29T13:43:49.540Z,75.64
2023-01-29T13:46:21.578Z,76.01
2023-01-29T13:48:51.111Z,77.42
2023-01-29T13:51:23.210Z,78.24
2023-01-29T13:54:18.063Z,74.74
2023-01-29T13:57:05.375Z,73.30
2023-01-29T13:59:53.689Z,74.28
2023-01-29T14:02:23.876Z,74.12
2023-01-29T14:04:51.246Z,75.64
2023-01-29T14:07:46.633Z,75.94
2023-01-29T14:10:19.903Z,76.79
2023-01-29T14:12:48.541Z,76.34
2023-01-29T14:15:22.403Z,77.52
2023-01-29T14:18:03.004Z,78.75
2023-01-29T14:20:47.267Z,78.16
2023-01-29T14:23:47.018Z,79.48
2023-01-29T14:26:26.347Z,80.55
2023-01-29T14:29:01.919Z,81.01
2023-01-29T14:31:52.247Z,80.95
2023-01-29T14:34:31.167Z,82.71
2023-01-29T14:37:23.799Z,82.38
2023-01-29T14:40:19.927Z,79.18
2023-01-29T14:43:04.457Z,80.23
2023-01-29T14:45:41.921Z,79.87
2023-01-29T14:48:12.135Z,81.08
2023-01-29T14:50:43.673Z,80.35
2023-01-29T14:53:19.993Z,81.23
2023-01-29T14:56:04.117Z,83.17
2023-01-29T14:58:56.234Z,84.97
2023-01-29T15:01:37.761Z,85.20
2023-01-29T15:04:12.804Z,84.89
2023-01-29T15:06:47.503Z,85.67
2023-01-29T15:09:17.714Z,86.25
2023-01-29T15:12:10.491Z,87.38
2023-01-29T15:14:44.677Z,87.81
2023-01-29T15:17:29.874Z,88.85
2023-01-29T15:19:57.955Z,88.03
2023-01-29T15:22:26.195Z,87.76
2023-01-29T15:25:10.615Z,88.96
2023-01-29T15:27:42.578Z,88.17
2023-01-29T15:30:16.768Z,88.83
2023-01-29T15:32:45.195Z,89.00
2023-01-29T15:35:27.780Z,89.21
2023-01-29T15:38:14.496Z,90.13
2023-01-29T15:40:42.005Z,90.19
2023-01-29T15:43:22.758Z,90.39
2023-01-29T15:45:52.103Z,90.80
2023-01-29T15:48:26.448Z,91.26
2023-01-29T15:50:55.578Z,91.44
2023-01-29T15:53:30.195Z,92.36
2023-01-29T15:56:00.121Z,93.00
2023-01-29T15:58:33.502Z,92.90
2023-01-29T16:01:01.550Z,92.61
2023-01-29T16:03:32.970Z,92.50
2023-01-29T16:06:02.218Z,93.09
2023-01-29T16:08:29.907Z,92.56
2023-01-29T16:11:00.125Z,92.57
2023-01-29T16:13:34.053Z,93.15
2023-01-29T16:16:08.583Z,92.87
2023-01-29T16:18:41.095Z,92.73
2023-01-29T16:21:17.174Z,93.67
2023-01-29T16:23:50.316Z,93.06
2023-01-29T16:26:25.161Z,94.17
2023-01-29T16:28:52.789Z,93.86
2023-01-29T16:31:28.193Z,93.72
2023-01-29T16:33:57.358Z,93.50
2023-01-29T16:36:27.011Z,92.99
2023-01-29T16:39:02.698Z,93.58
2023-01-29T16:41:38.302Z,93.06
2023-01-29T16:44:20.791Z,93.35
2023-01-29T16:46:56.954Z,93.43
2023-01-29T16:49:27.293Z,93.83
2023-01-29T16:51:56.497Z,94.81
2023-01-29T16:54:27.903Z,94.58
2023-01-29T16:57:00.717Z,94.00
2023-01-29T16:59:46.503Z,94.73
2023-01-29T17:02:33.779Z,94.53
2023-01-29T17:05:05.543Z,94.28
2023-01-29T17:07:33.857Z,94.68
2023-01-29T17:10:04.696Z,95.48
2023-01-29T17:12:33.744Z,95.01
2023-01-29T17:15:25.672Z,95.49
2023-01-29T17:17:53.068Z,95.25
2023-01-29T17:20:20.394Z,94.96
2023-01-29T17:22:47.510Z,94.73
2023-01-29T17:25:15.866Z,95.20
2023-01-29T17:27:51.836Z,95.02
2023-01-29T17:30:21.871Z,96.22
2023-01-29T17:32:49.713Z,96.05
2023-01-29T17:35:17.874Z,96.49
2023-01-29T17:37:45.367Z,96.95
2023-01-29T17:40:33.563Z,97.56
2023-01-29T17:43:00.685Z,97.10
2023-01-29T17:45:28.003Z,96.19
2023-01-29T17:47:55.131Z,95.68
2023-01-29T17:50:26.061Z,95.28
2023-01-29T17:52:54.009Z,95.11
2023-01-29T17:55:21.177Z,94.64
2023-01-29T17:57:48.448Z,93.94
2023-01-29T18:00:16.929Z,93.69
2023-01-29T18:02:44.097Z,93.90
2023-01-29T18:05:14.981Z,93.84
2023-01-29T18:07:44.274Z,93.45
2023-01-29T18:10:18.253Z,93.74
2023-01-29T18:12:46.045Z,93.58
2023-01-29T18:15:13.979Z,93.23
2023-01-29T18:17:41.766Z,93.01
2023-01-29T18:20:22.208Z,92.79
2023-01-29T18:22:49.736Z,92.27
2023-01-29T18:25:17.502Z,91.68
2023-01-29T18:27:45.302Z,91.23
2023-01-29T18:30:13.280Z,91.01
2023-01-29T18:32:40.427Z,91.55
2023-01-29T18:35:08.683Z,92.48
2023-01-29T18:37:36.556Z,93.19
2023-01-29T18:40:04.295Z,93.73
2023-01-29T18:42:33.416Z,94.03
2023-01-29T18:45:00.709Z,94.50
2023-01-29T18:47:28.133Z,94.92
2023-01-29T18:49:55.296Z,94.92
2023-01-29T18:52:22.689Z,93.17
2023-01-29T18:54:50.081Z,92.18
2023-01-29T18:58:25.920Z,90.09
2023-01-29T19:00:08.090Z,89.15
2023-01-29T19:02:35.581Z,89.04
2023-01-29T19:05:02.724Z,88.78
2023-01-29T19:07:30.158Z,88.94
2023-01-29T19:09:57.355Z,88.31
2023-01-29T19:12:24.714Z,89.27
2023-01-29T19:14:51.918Z,88.36
2023-01-29T19:17:19.194Z,86.90
2023-01-29T19:19:46.755Z,86.44
2023-01-29T19:22:13.928Z,85.74
2023-01-29T19:24:41.265Z,86.47
2023-01-29T19:27:08.431Z,86.68
2023-01-29T19:29:35.696Z,85.99
2023-01-29T19:32:02.828Z,85.62
2023-01-29T19:34:30.459Z,85.97
2023-01-29T19:36:57.659Z,85.10
2023-01-29T19:39:24.989Z,84.31
2023-01-29T19:41:52.640Z,83.80
2023-01-29T19:44:19.949Z,84.41
2023-01-29T19:46:47.013Z,85.16
2023-01-29T19:49:14.330Z,85.35
2023-01-29T19:51:41.546Z,85.45
2023-01-29T19:54:09.644Z,86.27
2023-01-29T19:56:37.001Z,86.61
2023-01-29T19:59:05.184Z,87.07
2023-01-29T20:01:32.491Z,87.47
2023-01-29T20:03:59.733Z,86.36
2023-01-29T20:06:31.212Z,85.03
2023-01-29T20:08:58.564Z,82.89
2023-01-29T20:11:25.831Z,81.85
2023-01-29T20:13:53.729Z,81.24
2023-01-29T20:16:21.884Z,80.97
2023-01-29T20:18:49.193Z,81.23
2023-01-29T20:21:20.694Z,81.41
2023-01-29T20:23:52.056Z,82.21
2023-01-29T20:26:20.187Z,80.85
2023-01-29T20:28:48.152Z,79.92
2023-01-29T20:31:16.018Z,80.79
2023-01-29T20:33:43.255Z,80.26
2023-01-29T20:36:12.380Z,80.73
2023-01-29T20:38:39.589Z,80.83
2023-01-29T20:41:17.846Z,80.28
2023-01-29T20:43:46.100Z,80.79
2023-01-29T20:46:13.472Z,81.46
2023-01-29T20:48:42.243Z,81.38
2023-01-29T20:51:15.993Z,81.47
2023-01-29T20:53:45.803Z,82.25
2023-01-29T20:56:14.850Z,82.54
2023-01-29T20:58:42.411Z,80.98
2023-01-29T21:01:15.841Z,80.77
2023-01-29T21:03:43.659Z,80.90
2023-01-29T21:06:11.764Z,80.72
2023-01-29T21:08:39.841Z,81.68
2023-01-29T21:11:09.062Z,81.08
2023-01-29T21:13:36.661Z,80.36
2023-01-29T21:16:04.467Z,80.65
2023-01-29T21:18:32.351Z,81.15
2023-01-29T21:20:59.607Z,80.98
2023-01-29T21:23:26.871Z,80.71
2023-01-29T21:25:54.057Z,80.37
2023-01-29T21:28:21.175Z,80.51
2023-01-29T21:30:48.493Z,80.41
2023-01-29T21:33:15.631Z,80.09
2023-01-29T21:35:42.805Z,80.98
2023-01-29T21:38:10.001Z,80.29
2023-01-29T21:40:55.802Z,80.14
2023-01-29T21:43:23.055Z,80.05
2023-01-29T21:45:55.637Z,79.55
2023-01-29T21:48:23.521Z,79.39
2023-01-29T21:50:51.569Z,79.51
2023-01-29T21:53:19.345Z,79.69
2023-01-29T21:55:47.092Z,80.06
2023-01-29T21:58:14.848Z,79.32
2023-01-29T22:00:42.141Z,79.73
2023-01-29T22:03:09.260Z,80.43
2023-01-29T22:05:36.478Z,80.19
2023-01-29T22:08:04.989Z,80.35
2023-01-29T22:10:34.214Z,80.93
2023-01-29T22:13:02.148Z,80.79
2023-01-29T22:15:29.400Z,80.60
2023-01-29T22:17:56.517Z,80.63
2023-01-29T22:20:30.331Z,80.41
2023-01-29T22:23:00.693Z,79.90
2023-01-29T22:25:28.009Z,79.58
2023-01-29T22:27:55.263Z,80.01
2023-01-29T22:30:23.513Z,80.21
2023-01-29T22:32:51.212Z,80.18
2023-01-29T22:35:18.520Z,80.08
2023-01-29T22:37:45.685Z,80.10
2023-01-29T22:40:13.781Z,80.13
2023-01-29T22:42:41.053Z,80.42
2023-01-29T22:45:09.003Z,80.82
2023-01-29T22:47:36.363Z,80.44
2023-01-29T22:50:06.320Z,80.41
2023-01-29T22:52:42.633Z,81.03
2023-01-29T22:55:11.375Z,80.66
2023-01-29T22:57:39.906Z,81.49
2023-01-29T23:00:10.987Z,81.18
2023-01-29T23:02:38.165Z,81.18
2023-01-29T23:05:05.831Z,81.08
2023-01-29T23:07:33.359Z,81.39
2023-01-29T23:10:00.745Z,81.43
2023-01-29T23:12:27.800Z,81.43
2023-01-29T23:14:55.052Z,80.83
2023-01-29T23:17:22.381Z,80.82
2023-01-29T23:19:49.588Z,80.82
2023-01-29T23:22:16.823Z,80.44
2023-01-29T23:24:43.987Z,79.54
2023-01-29T23:27:17.141Z,80.06
2023-01-29T23:29:46.242Z,79.58
2023-01-29T23:32:16.789Z,79.87
2023-01-29T23:34:44.057Z,79.83
2023-01-29T23:37:11.548Z,79.74
2023-01-29T23:39:38.772Z,79.98
2023-01-29T23:42:06.230Z,79.71
2023-01-29T23:44:33.401Z,79.91
2023-01-29T23:47:00.664Z,79.21
2023-01-29T23:49:27.824Z,78.79
2023-01-29T23:51:54.965Z,79.14
2023-01-29T23:54:22.152Z,80.06
2023-01-29T23:56:49.398Z,80.19
2023-01-29T23:59:16.734Z,80.47
